Accueil
METAR-TAF:

METAR-TAF

Aéroports :

Bedford, Massachusetts, États-Unis

latitude: 42-28-06N, longitude: 071-17-40W, altitude: 40 m

Observation

Le bulletin a été fait il y a 47 minutes, à 22:56 UTC
Vent 11 kt de sud-est
Température 22°C
Humidité 57%
Pression 1009 hPa
Visibilité: 16.1 km
Quelques nuages à une hauteur de 8000 ft
Quelques nuages à une hauteur de 18000 ft

METAR: KBED 212256Z 13011KT 10SM FEW080 FEW180 22/13 A2979 RMK AO2 SLP100 T02220128

Heure: 19:43 (23:43 UTC)

Prévision

Le bulletin a été fait il y a 16 minutes, à 23:27 UTC
Prévision valable du 22 à 00 UTC au 22 à 24 UTC
Vent 5 kt de est
Visibilité: 10 km
Nuages épars à une hauteur de 12000 ft
A partir de 22 à 0300 UTC
Vent kt de nord
Visibilité: 10 km
Quelques nuages à une hauteur de 25000 ft
A partir de 22 à 1400 UTC
Vent 6 kt de est
Visibilité: 10 km
Ciel clair

TAF: KBED 212327Z 2200/2224 09005KT P6SM SCT120 FM220300 00000KT P6SM FEW250 FM221400 09006KT P6SM SKC

Observations et prévisions météorologiques de plus de 4000 aéroports (messages METAR et TAF).

Les stations disponibles sont représentées par des disques jaunes et rouges sur la carte.

Passer la souris dessus pour voir le nom de la station.

Cliquer dessus pour voir les observations et prévisions météorologiques.

Pour changer de carte: cliquez sur les boutons verts avec une croix noire pour zoomer, sur le bouton vert avec un tiret pour effectuer un zoom arrière, ou sur les flèches vertes pour les cartes adjacentes.


METAR-TAF: